sensor_id;sensor_type;location;lat;lon;timestamp;P1;durP1;ratioP1;P2;durP2;ratioP2
45548;SDS011;31270;48.328;10.096;2023-08-20T00:01:12;11.50;;;10.30;;
45548;SDS011;31270;48.328;10.096;2023-08-20T00:03:40;11.02;;;9.90;;
45548;SDS011;31270;48.328;10.096;2023-08-20T00:06:07;14.93;;;10.13;;
45548;SDS011;31270;48.328;10.096;2023-08-20T00:08:33;12.85;;;11.10;;
45548;SDS011;31270;48.328;10.096;2023-08-20T00:10:58;12.85;;;10.25;;
45548;SDS011;31270;48.328;10.096;2023-08-20T00:13:24;13.38;;;10.25;;
45548;SDS011;31270;48.328;10.096;2023-08-20T00:15:50;12.13;;;11.02;;
45548;SDS011;31270;48.328;10.096;2023-08-20T00:18:16;15.85;;;10.73;;
45548;SDS011;31270;48.328;10.096;2023-08-20T00:20:41;12.77;;;11.35;;
45548;SDS011;31270;48.328;10.096;2023-08-20T00:23:07;13.80;;;10.68;;
45548;SDS011;31270;48.328;10.096;2023-08-20T00:25:33;12.68;;;11.48;;
45548;SDS011;31270;48.328;10.096;2023-08-20T00:27:59;13.00;;;11.15;;
45548;SDS011;31270;48.328;10.096;2023-08-20T00:30:25;12.27;;;10.98;;
45548;SDS011;31270;48.328;10.096;2023-08-20T00:32:50;16.73;;;11.32;;
45548;SDS011;31270;48.328;10.096;2023-08-20T00:35:16;12.25;;;10.93;;
45548;SDS011;31270;48.328;10.096;2023-08-20T00:37:42;14.18;;;11.90;;
45548;SDS011;31270;48.328;10.096;2023-08-20T00:40:09;16.77;;;11.85;;
45548;SDS011;31270;48.328;10.096;2023-08-20T00:42:36;13.20;;;10.95;;
45548;SDS011;31270;48.328;10.096;2023-08-20T00:45:02;13.68;;;11.52;;
45548;SDS011;31270;48.328;10.096;2023-08-20T00:47:29;14.88;;;11.07;;
45548;SDS011;31270;48.328;10.096;2023-08-20T00:49:54;14.38;;;11.23;;
45548;SDS011;31270;48.328;10.096;2023-08-20T00:52:20;16.00;;;10.98;;
45548;SDS011;31270;48.328;10.096;2023-08-20T00:54:47;12.38;;;10.48;;
45548;SDS011;31270;48.328;10.096;2023-08-20T00:57:13;15.90;;;11.68;;
45548;SDS011;31270;48.328;10.096;2023-08-20T00:59:42;15.93;;;12.85;;
45548;SDS011;31270;48.328;10.096;2023-08-20T01:02:09;18.65;;;13.35;;
45548;SDS011;31270;48.328;10.096;2023-08-20T01:04:35;15.95;;;12.57;;
45548;SDS011;31270;48.328;10.096;2023-08-20T01:07:08;14.60;;;12.63;;
45548;SDS011;31270;48.328;10.096;2023-08-20T01:12:32;18.63;;;13.85;;
45548;SDS011;31270;48.328;10.096;2023-08-20T01:15:00;15.77;;;13.57;;
45548;SDS011;31270;48.328;10.096;2023-08-20T01:17:25;13.75;;;12.10;;
45548;SDS011;31270;48.328;10.096;2023-08-20T01:19:51;18.63;;;12.95;;
45548;SDS011;31270;48.328;10.096;2023-08-20T01:22:21;19.98;;;14.25;;
45548;SDS011;31270;48.328;10.096;2023-08-20T01:30:25;14.85;;;12.85;;
45548;SDS011;31270;48.328;10.096;2023-08-20T01:32:52;16.02;;;13.80;;
45548;SDS011;31270;48.328;10.096;2023-08-20T01:35:19;15.73;;;14.07;;
45548;SDS011;31270;48.328;10.096;2023-08-20T01:37:45;16.42;;;13.90;;
45548;SDS011;31270;48.328;10.096;2023-08-20T01:40:10;15.25;;;13.30;;
45548;SDS011;31270;48.328;10.096;2023-08-20T01:42:39;15.63;;;13.73;;
45548;SDS011;31270;48.328;10.096;2023-08-20T01:45:06;19.20;;;14.38;;
45548;SDS011;31270;48.328;10.096;2023-08-20T01:47:35;19.20;;;13.82;;
45548;SDS011;31270;48.328;10.096;2023-08-20T01:50:00;20.73;;;14.30;;
45548;SDS011;31270;48.328;10.096;2023-08-20T01:52:27;17.05;;;14.30;;
45548;SDS011;31270;48.328;10.096;2023-08-20T01:54:54;16.10;;;14.18;;
45548;SDS011;31270;48.328;10.096;2023-08-20T01:57:20;16.73;;;13.52;;
45548;SDS011;31270;48.328;10.096;2023-08-20T01:59:46;17.73;;;14.07;;
45548;SDS011;31270;48.328;10.096;2023-08-20T02:02:13;16.50;;;13.85;;
45548;SDS011;31270;48.328;10.096;2023-08-20T02:04:39;16.38;;;13.95;;
45548;SDS011;31270;48.328;10.096;2023-08-20T02:07:04;17.98;;;14.00;;
45548;SDS011;31270;48.328;10.096;2023-08-20T02:09:31;13.95;;;12.35;;
45548;SDS011;31270;48.328;10.096;2023-08-20T02:11:56;17.23;;;13.75;;
45548;SDS011;31270;48.328;10.096;2023-08-20T02:14:22;18.05;;;14.00;;
45548;SDS011;31270;48.328;10.096;2023-08-20T02:16:48;16.75;;;13.90;;
45548;SDS011;31270;48.328;10.096;2023-08-20T02:19:20;16.20;;;13.50;;
45548;SDS011;31270;48.328;10.096;2023-08-20T02:21:46;17.17;;;13.95;;
45548;SDS011;31270;48.328;10.096;2023-08-20T02:24:12;17.48;;;14.38;;
45548;SDS011;31270;48.328;10.096;2023-08-20T02:26:38;17.35;;;14.60;;
45548;SDS011;31270;48.328;10.096;2023-08-20T02:29:03;17.80;;;13.93;;
45548;SDS011;31270;48.328;10.096;2023-08-20T02:31:30;23.95;;;15.00;;
45548;SDS011;31270;48.328;10.096;2023-08-20T02:33:56;17.27;;;14.07;;
45548;SDS011;31270;48.328;10.096;2023-08-20T02:36:21;15.55;;;13.93;;
45548;SDS011;31270;48.328;10.096;2023-08-20T02:38:47;21.00;;;15.25;;
45548;SDS011;31270;48.328;10.096;2023-08-20T02:41:12;17.65;;;14.25;;
45548;SDS011;31270;48.328;10.096;2023-08-20T02:43:38;19.48;;;15.35;;
45548;SDS011;31270;48.328;10.096;2023-08-20T02:46:04;16.45;;;14.60;;
45548;SDS011;31270;48.328;10.096;2023-08-20T02:48:29;17.30;;;14.60;;
45548;SDS011;31270;48.328;10.096;2023-08-20T02:50:55;22.23;;;13.93;;
45548;SDS011;31270;48.328;10.096;2023-08-20T02:53:21;17.63;;;15.07;;
45548;SDS011;31270;48.328;10.096;2023-08-20T02:55:47;21.42;;;14.98;;
45548;SDS011;31270;48.328;10.096;2023-08-20T02:58:13;16.10;;;14.38;;
45548;SDS011;31270;48.328;10.096;2023-08-20T03:00:39;22.50;;;15.45;;
45548;SDS011;31270;48.328;10.096;2023-08-20T03:03:05;19.73;;;15.75;;
45548;SDS011;31270;48.328;10.096;2023-08-20T03:05:33;17.23;;;15.27;;
45548;SDS011;31270;48.328;10.096;2023-08-20T03:07:59;20.90;;;15.35;;
45548;SDS011;31270;48.328;10.096;2023-08-20T03:10:26;17.23;;;15.30;;
45548;SDS011;31270;48.328;10.096;2023-08-20T03:12:52;17.88;;;15.63;;
45548;SDS011;31270;48.328;10.096;2023-08-20T03:15:18;18.27;;;15.68;;
45548;SDS011;31270;48.328;10.096;2023-08-20T03:17:43;19.75;;;15.85;;
45548;SDS011;31270;48.328;10.096;2023-08-20T03:20:09;19.23;;;15.55;;
45548;SDS011;31270;48.328;10.096;2023-08-20T03:22:36;20.08;;;15.90;;
45548;SDS011;31270;48.328;10.096;2023-08-20T03:25:03;23.25;;;16.83;;
45548;SDS011;31270;48.328;10.096;2023-08-20T03:27:28;18.50;;;16.50;;
45548;SDS011;31270;48.328;10.096;2023-08-20T03:29:54;18.50;;;16.05;;
45548;SDS011;31270;48.328;10.096;2023-08-20T03:32:20;18.10;;;16.10;;
45548;SDS011;31270;48.328;10.096;2023-08-20T03:34:46;19.77;;;15.73;;
45548;SDS011;31270;48.328;10.096;2023-08-20T03:37:11;21.98;;;16.55;;
45548;SDS011;31270;48.328;10.096;2023-08-20T03:39:37;20.45;;;16.15;;
45548;SDS011;31270;48.328;10.096;2023-08-20T03:42:03;19.88;;;15.40;;
45548;SDS011;31270;48.328;10.096;2023-08-20T03:44:28;20.20;;;16.88;;
45548;SDS011;31270;48.328;10.096;2023-08-20T03:46:55;20.48;;;16.30;;
45548;SDS011;31270;48.328;10.096;2023-08-20T03:49:20;18.98;;;16.65;;
45548;SDS011;31270;48.328;10.096;2023-08-20T03:51:47;21.33;;;17.00;;
45548;SDS011;31270;48.328;10.096;2023-08-20T03:54:12;18.20;;;15.68;;
45548;SDS011;31270;48.328;10.096;2023-08-20T03:56:38;22.45;;;15.82;;
45548;SDS011;31270;48.328;10.096;2023-08-20T03:59:04;19.98;;;16.75;;
45548;SDS011;31270;48.328;10.096;2023-08-20T04:01:30;19.80;;;16.27;;
45548;SDS011;31270;48.328;10.096;2023-08-20T04:03:55;20.52;;;15.90;;
45548;SDS011;31270;48.328;10.096;2023-08-20T04:06:21;18.35;;;15.90;;
45548;SDS011;31270;48.328;10.096;2023-08-20T04:08:46;19.38;;;15.55;;
45548;SDS011;31270;48.328;10.096;2023-08-20T04:11:12;18.27;;;15.85;;
45548;SDS011;31270;48.328;10.096;2023-08-20T04:13:38;17.30;;;15.43;;
45548;SDS011;31270;48.328;10.096;2023-08-20T04:16:04;22.17;;;17.08;;
45548;SDS011;31270;48.328;10.096;2023-08-20T04:18:30;19.27;;;15.93;;
45548;SDS011;31270;48.328;10.096;2023-08-20T04:20:56;20.40;;;15.95;;
45548;SDS011;31270;48.328;10.096;2023-08-20T04:23:22;18.27;;;15.50;;
45548;SDS011;31270;48.328;10.096;2023-08-20T04:25:48;19.63;;;15.48;;
45548;SDS011;31270;48.328;10.096;2023-08-20T04:28:13;16.30;;;14.45;;
45548;SDS011;31270;48.328;10.096;2023-08-20T04:30:39;19.55;;;15.68;;
45548;SDS011;31270;48.328;10.096;2023-08-20T04:33:05;22.33;;;16.45;;
45548;SDS011;31270;48.328;10.096;2023-08-20T04:35:31;20.65;;;16.45;;
45548;SDS011;31270;48.328;10.096;2023-08-20T04:37:56;19.90;;;15.57;;
45548;SDS011;31270;48.328;10.096;2023-08-20T04:40:22;20.58;;;15.80;;
45548;SDS011;31270;48.328;10.096;2023-08-20T04:42:48;20.55;;;15.98;;
45548;SDS011;31270;48.328;10.096;2023-08-20T04:45:14;21.90;;;17.30;;
45548;SDS011;31270;48.328;10.096;2023-08-20T04:47:42;19.45;;;17.00;;
45548;SDS011;31270;48.328;10.096;2023-08-20T04:50:08;24.13;;;18.17;;
45548;SDS011;31270;48.328;10.096;2023-08-20T04:52:34;22.38;;;17.58;;
45548;SDS011;31270;48.328;10.096;2023-08-20T04:55:03;20.90;;;17.13;;
45548;SDS011;31270;48.328;10.096;2023-08-20T04:57:29;19.67;;;17.13;;
45548;SDS011;31270;48.328;10.096;2023-08-20T04:59:54;18.42;;;16.27;;
45548;SDS011;31270;48.328;10.096;2023-08-20T05:02:20;24.00;;;16.38;;
45548;SDS011;31270;48.328;10.096;2023-08-20T05:04:45;22.35;;;16.63;;
45548;SDS011;31270;48.328;10.096;2023-08-20T05:07:11;23.35;;;15.88;;
45548;SDS011;31270;48.328;10.096;2023-08-20T05:09:36;17.35;;;15.45;;
45548;SDS011;31270;48.328;10.096;2023-08-20T05:12:02;18.85;;;15.52;;
45548;SDS011;31270;48.328;10.096;2023-08-20T05:14:29;18.70;;;16.38;;
45548;SDS011;31270;48.328;10.096;2023-08-20T05:16:56;20.35;;;15.75;;
45548;SDS011;31270;48.328;10.096;2023-08-20T05:19:21;20.48;;;16.00;;
45548;SDS011;31270;48.328;10.096;2023-08-20T05:21:47;18.25;;;15.80;;
45548;SDS011;31270;48.328;10.096;2023-08-20T05:24:12;16.00;;;14.35;;
45548;SDS011;31270;48.328;10.096;2023-08-20T05:26:38;19.70;;;15.45;;
45548;SDS011;31270;48.328;10.096;2023-08-20T05:29:04;18.92;;;14.38;;
45548;SDS011;31270;48.328;10.096;2023-08-20T05:31:29;20.33;;;15.27;;
45548;SDS011;31270;48.328;10.096;2023-08-20T05:33:55;15.98;;;14.27;;
45548;SDS011;31270;48.328;10.096;2023-08-20T05:36:21;15.55;;;13.48;;
45548;SDS011;31270;48.328;10.096;2023-08-20T05:38:48;17.95;;;15.40;;
45548;SDS011;31270;48.328;10.096;2023-08-20T05:41:14;17.48;;;14.10;;
45548;SDS011;31270;48.328;10.096;2023-08-20T05:43:39;16.67;;;14.85;;
45548;SDS011;31270;48.328;10.096;2023-08-20T05:46:05;17.95;;;14.95;;
45548;SDS011;31270;48.328;10.096;2023-08-20T05:48:30;17.63;;;15.07;;
45548;SDS011;31270;48.328;10.096;2023-08-20T05:50:56;18.40;;;14.35;;
45548;SDS011;31270;48.328;10.096;2023-08-20T05:53:22;16.50;;;14.27;;
45548;SDS011;31270;48.328;10.096;2023-08-20T05:55:48;15.45;;;13.85;;
45548;SDS011;31270;48.328;10.096;2023-08-20T05:58:13;16.35;;;14.20;;
45548;SDS011;31270;48.328;10.096;2023-08-20T06:00:39;17.50;;;14.93;;
45548;SDS011;31270;48.328;10.096;2023-08-20T06:03:05;16.77;;;14.60;;
45548;SDS011;31270;48.328;10.096;2023-08-20T06:05:32;17.67;;;15.30;;
45548;SDS011;31270;48.328;10.096;2023-08-20T06:08:01;16.25;;;14.10;;
45548;SDS011;31270;48.328;10.096;2023-08-20T06:10:27;15.10;;;13.60;;
45548;SDS011;31270;48.328;10.096;2023-08-20T06:12:53;20.75;;;15.02;;
45548;SDS011;31270;48.328;10.096;2023-08-20T06:15:19;17.92;;;13.95;;
45548;SDS011;31270;48.328;10.096;2023-08-20T06:17:44;15.93;;;13.57;;
45548;SDS011;31270;48.328;10.096;2023-08-20T06:20:10;16.60;;;14.32;;
45548;SDS011;31270;48.328;10.096;2023-08-20T06:22:39;16.52;;;13.18;;
45548;SDS011;31270;48.328;10.096;2023-08-20T06:25:05;19.65;;;14.68;;
45548;SDS011;31270;48.328;10.096;2023-08-20T06:27:31;16.40;;;14.68;;
45548;SDS011;31270;48.328;10.096;2023-08-20T06:29:56;20.75;;;14.30;;
45548;SDS011;31270;48.328;10.096;2023-08-20T06:32:25;24.10;;;14.15;;
45548;SDS011;31270;48.328;10.096;2023-08-20T06:34:51;14.90;;;12.80;;
45548;SDS011;31270;48.328;10.096;2023-08-20T06:37:16;14.88;;;13.32;;
45548;SDS011;31270;48.328;10.096;2023-08-20T06:39:42;15.95;;;14.25;;
45548;SDS011;31270;48.328;10.096;2023-08-20T06:42:07;17.65;;;13.85;;
45548;SDS011;31270;48.328;10.096;2023-08-20T06:44:33;17.38;;;13.68;;
45548;SDS011;31270;48.328;10.096;2023-08-20T06:47:00;14.73;;;13.18;;
45548;SDS011;31270;48.328;10.096;2023-08-20T06:49:25;16.88;;;12.02;;
45548;SDS011;31270;48.328;10.096;2023-08-20T06:51:51;15.30;;;12.18;;
45548;SDS011;31270;48.328;10.096;2023-08-20T06:54:17;16.35;;;12.95;;
45548;SDS011;31270;48.328;10.096;2023-08-20T06:56:42;13.95;;;12.65;;
45548;SDS011;31270;48.328;10.096;2023-08-20T06:59:08;16.38;;;12.45;;
45548;SDS011;31270;48.328;10.096;2023-08-20T07:01:35;15.73;;;12.40;;
45548;SDS011;31270;48.328;10.096;2023-08-20T07:04:01;12.73;;;11.13;;
45548;SDS011;31270;48.328;10.096;2023-08-20T07:06:27;14.57;;;13.07;;
45548;SDS011;31270;48.328;10.096;2023-08-20T07:08:53;15.13;;;13.18;;
45548;SDS011;31270;48.328;10.096;2023-08-20T07:11:19;16.02;;;11.65;;
45548;SDS011;31270;48.328;10.096;2023-08-20T07:13:44;13.73;;;11.63;;
45548;SDS011;31270;48.328;10.096;2023-08-20T07:16:10;15.38;;;11.98;;
45548;SDS011;31270;48.328;10.096;2023-08-20T07:18:36;16.35;;;12.63;;
45548;SDS011;31270;48.328;10.096;2023-08-20T07:21:02;13.35;;;11.93;;
45548;SDS011;31270;48.328;10.096;2023-08-20T07:23:28;13.95;;;11.43;;
45548;SDS011;31270;48.328;10.096;2023-08-20T07:26:03;15.48;;;11.45;;
45548;SDS011;31270;48.328;10.096;2023-08-20T07:28:30;13.63;;;11.88;;
45548;SDS011;31270;48.328;10.096;2023-08-20T07:31:15;13.48;;;12.05;;
45548;SDS011;31270;48.328;10.096;2023-08-20T07:33:40;16.90;;;12.18;;
45548;SDS011;31270;48.328;10.096;2023-08-20T07:36:06;13.90;;;11.32;;
45548;SDS011;31270;48.328;10.096;2023-08-20T07:38:32;12.55;;;11.35;;
45548;SDS011;31270;48.328;10.096;2023-08-20T07:40:57;13.15;;;11.77;;
45548;SDS011;31270;48.328;10.096;2023-08-20T07:43:24;14.35;;;10.93;;
45548;SDS011;31270;48.328;10.096;2023-08-20T07:45:49;13.57;;;11.60;;
45548;SDS011;31270;48.328;10.096;2023-08-20T07:48:15;12.63;;;11.32;;
45548;SDS011;31270;48.328;10.096;2023-08-20T07:50:40;12.48;;;10.80;;
45548;SDS011;31270;48.328;10.096;2023-08-20T07:53:06;14.27;;;11.48;;
45548;SDS011;31270;48.328;10.096;2023-08-20T07:55:31;12.77;;;11.25;;
45548;SDS011;31270;48.328;10.096;2023-08-20T07:57:57;12.30;;;10.98;;
45548;SDS011;31270;48.328;10.096;2023-08-20T08:00:23;13.73;;;10.63;;
45548;SDS011;31270;48.328;10.096;2023-08-20T08:02:48;15.30;;;9.65;;
45548;SDS011;31270;48.328;10.096;2023-08-20T08:05:14;14.43;;;10.45;;
45548;SDS011;31270;48.328;10.096;2023-08-20T08:07:40;12.70;;;11.40;;
45548;SDS011;31270;48.328;10.096;2023-08-20T08:10:05;10.95;;;9.85;;
45548;SDS011;31270;48.328;10.096;2023-08-20T08:12:31;12.20;;;10.05;;
45548;SDS011;31270;48.328;10.096;2023-08-20T08:14:57;11.55;;;10.38;;
45548;SDS011;31270;48.328;10.096;2023-08-20T08:17:23;14.63;;;10.32;;
45548;SDS011;31270;48.328;10.096;2023-08-20T08:19:48;13.05;;;10.52;;
45548;SDS011;31270;48.328;10.096;2023-08-20T08:22:14;14.10;;;9.88;;
45548;SDS011;31270;48.328;10.096;2023-08-20T08:24:40;10.85;;;9.75;;
45548;SDS011;31270;48.328;10.096;2023-08-20T08:27:07;13.60;;;10.00;;
45548;SDS011;31270;48.328;10.096;2023-08-20T08:29:33;14.07;;;10.23;;
45548;SDS011;31270;48.328;10.096;2023-08-20T08:31:58;10.80;;;9.70;;
45548;SDS011;31270;48.328;10.096;2023-08-20T08:34:24;11.90;;;10.55;;
45548;SDS011;31270;48.328;10.096;2023-08-20T08:36:49;12.32;;;10.38;;
45548;SDS011;31270;48.328;10.096;2023-08-20T08:39:15;12.30;;;10.88;;
45548;SDS011;31270;48.328;10.096;2023-08-20T08:41:41;10.95;;;9.35;;
45548;SDS011;31270;48.328;10.096;2023-08-20T08:44:13;11.88;;;9.20;;
45548;SDS011;31270;48.328;10.096;2023-08-20T08:46:38;12.55;;;9.00;;
45548;SDS011;31270;48.328;10.096;2023-08-20T08:49:04;14.30;;;9.40;;
45548;SDS011;31270;48.328;10.096;2023-08-20T08:51:30;10.30;;;8.88;;
45548;SDS011;31270;48.328;10.096;2023-08-20T08:53:57;11.77;;;8.40;;
45548;SDS011;31270;48.328;10.096;2023-08-20T08:56:23;9.95;;;8.95;;
45548;SDS011;31270;48.328;10.096;2023-08-20T08:58:49;10.00;;;8.73;;
45548;SDS011;31270;48.328;10.096;2023-08-20T09:01:14;11.30;;;9.32;;
45548;SDS011;31270;48.328;10.096;2023-08-20T09:03:40;11.35;;;8.68;;
45548;SDS011;31270;48.328;10.096;2023-08-20T09:06:09;9.95;;;8.82;;
45548;SDS011;31270;48.328;10.096;2023-08-20T09:08:35;10.73;;;9.25;;
45548;SDS011;31270;48.328;10.096;2023-08-20T09:11:01;10.77;;;8.02;;
45548;SDS011;31270;48.328;10.096;2023-08-20T09:13:41;12.00;;;8.23;;
45548;SDS011;31270;48.328;10.096;2023-08-20T09:16:08;8.75;;;7.95;;
45548;SDS011;31270;48.328;10.096;2023-08-20T09:18:43;8.77;;;7.82;;
45548;SDS011;31270;48.328;10.096;2023-08-20T09:21:11;9.07;;;7.72;;
45548;SDS011;31270;48.328;10.096;2023-08-20T09:23:37;10.35;;;7.70;;
45548;SDS011;31270;48.328;10.096;2023-08-20T09:26:05;11.20;;;8.38;;
45548;SDS011;31270;48.328;10.096;2023-08-20T09:28:41;10.18;;;8.18;;
45548;SDS011;31270;48.328;10.096;2023-08-20T09:31:08;9.95;;;8.25;;
45548;SDS011;31270;48.328;10.096;2023-08-20T09:33:34;31.10;;;23.02;;
45548;SDS011;31270;48.328;10.096;2023-08-20T09:36:02;15.88;;;12.48;;
45548;SDS011;31270;48.328;10.096;2023-08-20T09:38:29;19.13;;;16.73;;
45548;SDS011;31270;48.328;10.096;2023-08-20T09:40:55;8.90;;;8.10;;
45548;SDS011;31270;48.328;10.096;2023-08-20T09:43:23;10.60;;;9.50;;
45548;SDS011;31270;48.328;10.096;2023-08-20T09:45:53;9.63;;;8.13;;
45548;SDS011;31270;48.328;10.096;2023-08-20T09:48:21;11.52;;;10.32;;
45548;SDS011;31270;48.328;10.096;2023-08-20T09:50:49;9.40;;;8.50;;
45548;SDS011;31270;48.328;10.096;2023-08-20T09:53:26;12.23;;;8.20;;
45548;SDS011;31270;48.328;10.096;2023-08-20T09:56:01;10.00;;;8.60;;
45548;SDS011;31270;48.328;10.096;2023-08-20T09:58:34;11.57;;;8.38;;
45548;SDS011;31270;48.328;10.096;2023-08-20T10:01:02;29.02;;;26.10;;
45548;SDS011;31270;48.328;10.096;2023-08-20T10:03:28;9.48;;;8.48;;
45548;SDS011;31270;48.328;10.096;2023-08-20T10:05:55;8.48;;;7.68;;
45548;SDS011;31270;48.328;10.096;2023-08-20T10:08:23;19.33;;;17.38;;
45548;SDS011;31270;48.328;10.096;2023-08-20T10:10:49;11.77;;;8.45;;
45548;SDS011;31270;48.328;10.096;2023-08-20T10:13:15;8.57;;;7.78;;
45548;SDS011;31270;48.328;10.096;2023-08-20T10:15:42;22.25;;;9.38;;
45548;SDS011;31270;48.328;10.096;2023-08-20T10:18:07;8.15;;;7.43;;
45548;SDS011;31270;48.328;10.096;2023-08-20T10:20:34;8.25;;;7.15;;
45548;SDS011;31270;48.328;10.096;2023-08-20T10:23:02;7.88;;;7.07;;
45548;SDS011;31270;48.328;10.096;2023-08-20T10:25:44;18.02;;;16.13;;
45548;SDS011;31270;48.328;10.096;2023-08-20T10:30:38;8.30;;;6.68;;
45548;SDS011;31270;48.328;10.096;2023-08-20T10:33:25;8.57;;;7.30;;
45548;SDS011;31270;48.328;10.096;2023-08-20T10:35:51;11.38;;;10.00;;
45548;SDS011;31270;48.328;10.096;2023-08-20T10:38:18;12.13;;;10.88;;
45548;SDS011;31270;48.328;10.096;2023-08-20T10:40:53;21.15;;;18.90;;
45548;SDS011;31270;48.328;10.096;2023-08-20T10:43:26;9.05;;;7.50;;
45548;SDS011;31270;48.328;10.096;2023-08-20T10:46:03;18.92;;;16.92;;
45548;SDS011;31270;48.328;10.096;2023-08-20T10:48:30;8.55;;;7.75;;
45548;SDS011;31270;48.328;10.096;2023-08-20T10:51:06;22.40;;;20.08;;
45548;SDS011;31270;48.328;10.096;2023-08-20T10:53:33;20.25;;;16.15;;
45548;SDS011;31270;48.328;10.096;2023-08-20T10:56:10;11.35;;;8.25;;
45548;SDS011;31270;48.328;10.096;2023-08-20T10:58:42;8.57;;;7.60;;
45548;SDS011;31270;48.328;10.096;2023-08-20T11:01:15;12.07;;;9.02;;
45548;SDS011;31270;48.328;10.096;2023-08-20T11:03:45;7.88;;;6.30;;
45548;SDS011;31270;48.328;10.096;2023-08-20T11:06:13;8.35;;;6.30;;
45548;SDS011;31270;48.328;10.096;2023-08-20T11:08:39;9.10;;;5.55;;
45548;SDS011;31270;48.328;10.096;2023-08-20T11:11:06;33.45;;;29.80;;
45548;SDS011;31270;48.328;10.096;2023-08-20T11:13:33;9.18;;;8.15;;
45548;SDS011;31270;48.328;10.096;2023-08-20T11:16:02;8.35;;;5.50;;
45548;SDS011;31270;48.328;10.096;2023-08-20T11:18:30;11.07;;;7.78;;
45548;SDS011;31270;48.328;10.096;2023-08-20T11:20:57;10.50;;;6.47;;
45548;SDS011;31270;48.328;10.096;2023-08-20T11:23:22;11.20;;;9.48;;
45548;SDS011;31270;48.328;10.096;2023-08-20T11:25:50;34.65;;;29.75;;
45548;SDS011;31270;48.328;10.096;2023-08-20T11:28:15;15.93;;;13.48;;
45548;SDS011;31270;48.328;10.096;2023-08-20T11:30:41;38.85;;;34.67;;
45548;SDS011;31270;48.328;10.096;2023-08-20T11:33:07;11.00;;;10.00;;
45548;SDS011;31270;48.328;10.096;2023-08-20T11:35:33;11.25;;;8.82;;
45548;SDS011;31270;48.328;10.096;2023-08-20T11:38:00;8.32;;;5.82;;
45548;SDS011;31270;48.328;10.096;2023-08-20T11:40:28;7.95;;;6.60;;
45548;SDS011;31270;48.328;10.096;2023-08-20T11:42:53;6.82;;;5.55;;
45548;SDS011;31270;48.328;10.096;2023-08-20T11:45:19;8.23;;;7.30;;
45548;SDS011;31270;48.328;10.096;2023-08-20T11:47:44;11.20;;;7.38;;
45548;SDS011;31270;48.328;10.096;2023-08-20T11:50:10;7.43;;;6.72;;
45548;SDS011;31270;48.328;10.096;2023-08-20T11:52:36;6.63;;;5.97;;
45548;SDS011;31270;48.328;10.096;2023-08-20T11:55:04;9.80;;;6.80;;
45548;SDS011;31270;48.328;10.096;2023-08-20T11:57:31;8.68;;;6.20;;
45548;SDS011;31270;48.328;10.096;2023-08-20T12:00:03;8.98;;;6.60;;
45548;SDS011;31270;48.328;10.096;2023-08-20T12:02:35;7.63;;;6.03;;
45548;SDS011;31270;48.328;10.096;2023-08-20T12:05:00;10.52;;;6.63;;
45548;SDS011;31270;48.328;10.096;2023-08-20T12:07:29;7.10;;;6.40;;
45548;SDS011;31270;48.328;10.096;2023-08-20T12:09:55;9.50;;;6.20;;
45548;SDS011;31270;48.328;10.096;2023-08-20T12:12:21;6.57;;;5.72;;
45548;SDS011;31270;48.328;10.096;2023-08-20T12:14:47;8.93;;;5.50;;
45548;SDS011;31270;48.328;10.096;2023-08-20T12:17:19;8.82;;;5.63;;
45548;SDS011;31270;48.328;10.096;2023-08-20T12:19:46;6.57;;;5.63;;
45548;SDS011;31270;48.328;10.096;2023-08-20T12:22:11;9.57;;;5.70;;
45548;SDS011;31270;48.328;10.096;2023-08-20T12:24:38;8.75;;;5.30;;
45548;SDS011;31270;48.328;10.096;2023-08-20T12:27:03;6.50;;;5.68;;
45548;SDS011;31270;48.328;10.096;2023-08-20T12:29:29;6.95;;;5.45;;
45548;SDS011;31270;48.328;10.096;2023-08-20T12:31:55;6.65;;;4.68;;
45548;SDS011;31270;48.328;10.096;2023-08-20T12:34:20;7.65;;;6.05;;
45548;SDS011;31270;48.328;10.096;2023-08-20T12:36:51;6.30;;;5.50;;
45548;SDS011;31270;48.328;10.096;2023-08-20T12:39:16;8.38;;;5.30;;
45548;SDS011;31270;48.328;10.096;2023-08-20T12:41:42;6.90;;;5.00;;
45548;SDS011;31270;48.328;10.096;2023-08-20T12:44:08;7.72;;;5.32;;
45548;SDS011;31270;48.328;10.096;2023-08-20T12:46:33;7.57;;;4.90;;
45548;SDS011;31270;48.328;10.096;2023-08-20T12:48:59;6.68;;;4.45;;
45548;SDS011;31270;48.328;10.096;2023-08-20T12:51:25;4.72;;;3.97;;
45548;SDS011;31270;48.328;10.096;2023-08-20T12:53:51;9.90;;;4.43;;
45548;SDS011;31270;48.328;10.096;2023-08-20T12:56:17;5.97;;;4.32;;
45548;SDS011;31270;48.328;10.096;2023-08-20T12:58:43;7.88;;;4.38;;
45548;SDS011;31270;48.328;10.096;2023-08-20T13:01:09;4.75;;;4.35;;
45548;SDS011;31270;48.328;10.096;2023-08-20T13:03:35;6.72;;;5.00;;
45548;SDS011;31270;48.328;10.096;2023-08-20T13:06:00;8.00;;;5.13;;
45548;SDS011;31270;48.328;10.096;2023-08-20T13:08:26;5.65;;;4.68;;
45548;SDS011;31270;48.328;10.096;2023-08-20T13:10:53;8.25;;;5.18;;
45548;SDS011;31270;48.328;10.096;2023-08-20T13:13:21;6.70;;;5.13;;
45548;SDS011;31270;48.328;10.096;2023-08-20T13:15:48;6.53;;;5.28;;
45548;SDS011;31270;48.328;10.096;2023-08-20T13:18:14;7.30;;;5.25;;
45548;SDS011;31270;48.328;10.096;2023-08-20T13:20:40;5.63;;;5.13;;
45548;SDS011;31270;48.328;10.096;2023-08-20T13:23:07;9.32;;;5.68;;
45548;SDS011;31270;48.328;10.096;2023-08-20T13:25:32;5.80;;;5.03;;
45548;SDS011;31270;48.328;10.096;2023-08-20T13:27:58;6.93;;;5.15;;
45548;SDS011;31270;48.328;10.096;2023-08-20T13:30:24;6.35;;;4.88;;
45548;SDS011;31270;48.328;10.096;2023-08-20T13:32:50;5.82;;;4.50;;
45548;SDS011;31270;48.328;10.096;2023-08-20T13:35:16;9.20;;;5.07;;
45548;SDS011;31270;48.328;10.096;2023-08-20T13:37:42;10.00;;;5.28;;
45548;SDS011;31270;48.328;10.096;2023-08-20T13:40:07;8.23;;;5.05;;
45548;SDS011;31270;48.328;10.096;2023-08-20T13:42:35;7.18;;;4.40;;
45548;SDS011;31270;48.328;10.096;2023-08-20T13:45:01;8.07;;;4.35;;
45548;SDS011;31270;48.328;10.096;2023-08-20T13:47:26;6.43;;;5.30;;
45548;SDS011;31270;48.328;10.096;2023-08-20T13:49:52;5.22;;;4.43;;
45548;SDS011;31270;48.328;10.096;2023-08-20T13:52:18;5.88;;;4.85;;
45548;SDS011;31270;48.328;10.096;2023-08-20T13:54:44;5.63;;;4.45;;
45548;SDS011;31270;48.328;10.096;2023-08-20T13:57:11;7.80;;;4.78;;
45548;SDS011;31270;48.328;10.096;2023-08-20T13:59:37;6.18;;;4.35;;
45548;SDS011;31270;48.328;10.096;2023-08-20T14:02:03;7.05;;;4.82;;
45548;SDS011;31270;48.328;10.096;2023-08-20T14:04:29;6.40;;;4.55;;
45548;SDS011;31270;48.328;10.096;2023-08-20T14:06:55;6.88;;;4.60;;
45548;SDS011;31270;48.328;10.096;2023-08-20T14:09:21;5.80;;;4.38;;
45548;SDS011;31270;48.328;10.096;2023-08-20T14:11:47;6.50;;;4.63;;
45548;SDS011;31270;48.328;10.096;2023-08-20T14:14:13;4.63;;;3.80;;
45548;SDS011;31270;48.328;10.096;2023-08-20T14:16:39;6.75;;;4.43;;
45548;SDS011;31270;48.328;10.096;2023-08-20T14:19:05;7.50;;;4.43;;
45548;SDS011;31270;48.328;10.096;2023-08-20T14:21:31;6.05;;;4.40;;
45548;SDS011;31270;48.328;10.096;2023-08-20T14:23:57;5.18;;;4.55;;